createdAt,value
2023-03-26T00:01:29.785Z,5.62
2023-03-26T00:03:57.862Z,5.62
2023-03-26T00:06:25.611Z,5.61
2023-03-26T00:08:53.143Z,5.60
2023-03-26T00:11:20.958Z,5.60
2023-03-26T00:13:48.523Z,5.58
2023-03-26T00:16:16.805Z,5.58
2023-03-26T00:18:44.351Z,5.57
2023-03-26T00:21:12.041Z,5.55
2023-03-26T00:23:39.602Z,5.52
2023-03-26T00:26:10.853Z,5.50
2023-03-26T00:28:40.653Z,5.49
2023-03-26T00:31:08.552Z,5.47
2023-03-26T00:33:41.532Z,5.46
2023-03-26T00:36:10.556Z,5.46
2023-03-26T00:38:39.163Z,5.45
2023-03-26T00:41:07.181Z,5.43
2023-03-26T00:43:34.833Z,5.38
2023-03-26T00:46:02.412Z,5.34
2023-03-26T00:48:44.153Z,5.33
2023-03-26T00:51:15.506Z,5.32
2023-03-26T00:53:43.729Z,5.32
2023-03-26T00:56:13.119Z,5.30
2023-03-26T00:58:40.825Z,5.31
2023-03-26T01:01:08.497Z,5.32
2023-03-26T01:03:37.029Z,5.34
2023-03-26T01:06:08.229Z,5.43
2023-03-26T01:08:35.800Z,5.41
2023-03-26T01:11:03.496Z,5.38
2023-03-26T01:13:31.359Z,5.38
2023-03-26T01:16:02.137Z,5.38
2023-03-26T01:18:33.833Z,5.41
2023-03-26T01:21:05.406Z,5.41
2023-03-26T01:23:33.059Z,5.40
2023-03-26T01:26:00.623Z,5.40
2023-03-26T01:28:28.275Z,5.39
2023-03-26T01:30:58.572Z,5.36
2023-03-26T01:33:30.228Z,5.37
2023-03-26T01:35:58.120Z,5.38
2023-03-26T01:38:25.976Z,5.38
2023-03-26T01:40:53.673Z,5.39
2023-03-26T01:43:21.375Z,5.40
2023-03-26T01:45:49.001Z,5.42
2023-03-26T01:48:17.599Z,5.44
2023-03-26T01:50:45.160Z,5.45
2023-03-26T01:53:12.715Z,5.46
2023-03-26T01:55:42.607Z,5.48
2023-03-26T01:58:10.584Z,5.50
2023-03-26T02:00:38.178Z,5.52
2023-03-26T02:03:06.097Z,5.52
2023-03-26T02:05:33.841Z,5.53
2023-03-26T02:08:01.681Z,5.53
2023-03-26T02:10:29.632Z,5.53
2023-03-26T02:12:57.235Z,5.54
2023-03-26T02:15:24.835Z,5.55
2023-03-26T02:17:53.511Z,5.53
2023-03-26T02:20:21.542Z,5.53
2023-03-26T02:22:52.237Z,5.50
2023-03-26T02:25:20.049Z,5.48
2023-03-26T02:27:47.544Z,5.45
2023-03-26T02:30:15.485Z,5.43
2023-03-26T02:32:44.061Z,5.40
2023-03-26T02:35:12.007Z,5.38
2023-03-26T02:37:46.982Z,5.37
2023-03-26T02:40:14.652Z,5.38
2023-03-26T02:42:42.319Z,5.38
2023-03-26T02:45:10.099Z,5.38
2023-03-26T02:47:37.783Z,5.34
2023-03-26T02:50:05.352Z,5.32
2023-03-26T02:52:33.800Z,5.30
2023-03-26T02:55:01.452Z,5.27
2023-03-26T02:57:29.188Z,5.25
2023-03-26T02:59:56.855Z,5.24
2023-03-26T03:02:25.784Z,5.25
2023-03-26T03:05:01.808Z,5.24
2023-03-26T03:07:29.626Z,5.25
2023-03-26T03:10:02.367Z,5.25
2023-03-26T03:12:30.247Z,5.27
2023-03-26T03:14:57.913Z,5.30
2023-03-26T03:17:25.535Z,5.32
2023-03-26T03:19:55.516Z,5.34
2023-03-26T03:22:23.105Z,5.34
2023-03-26T03:25:00.115Z,5.35
2023-03-26T03:27:27.885Z,5.38
2023-03-26T03:29:56.064Z,5.36
2023-03-26T03:32:23.827Z,5.32
2023-03-26T03:34:51.480Z,5.26
2023-03-26T03:37:19.056Z,5.24
2023-03-26T03:39:46.807Z,5.20
2023-03-26T03:42:14.266Z,5.16
2023-03-26T03:44:41.949Z,5.12
2023-03-26T03:47:13.748Z,5.09
2023-03-26T03:49:41.337Z,5.07
2023-03-26T03:52:08.857Z,5.03
2023-03-26T03:54:36.395Z,5.01
2023-03-26T03:57:03.954Z,4.99
2023-03-26T03:59:31.760Z,4.97
2023-03-26T04:01:59.425Z,4.93
2023-03-26T04:04:26.968Z,4.91
2023-03-26T04:06:55.096Z,4.88
2023-03-26T04:09:22.738Z,4.87
2023-03-26T04:11:51.153Z,4.86
2023-03-26T04:14:18.756Z,4.86
2023-03-26T04:16:46.479Z,4.85
2023-03-26T04:19:14.602Z,4.84
2023-03-26T04:21:42.895Z,4.86
2023-03-26T04:24:11.175Z,4.89
2023-03-26T04:26:38.737Z,4.90
2023-03-26T04:29:06.288Z,4.93
2023-03-26T04:31:34.689Z,4.91
2023-03-26T04:34:05.576Z,4.91
2023-03-26T04:36:35.695Z,4.89
2023-03-26T04:39:05.720Z,4.85
2023-03-26T04:41:33.557Z,4.82
2023-03-26T04:44:02.894Z,4.79
2023-03-26T04:46:33.746Z,4.78
2023-03-26T04:49:01.937Z,4.77
2023-03-26T04:51:32.242Z,4.77
2023-03-26T04:54:00.012Z,4.82
2023-03-26T04:56:29.941Z,4.89
2023-03-26T04:58:57.853Z,4.96
2023-03-26T05:01:28.298Z,5.02
2023-03-26T05:03:57.048Z,5.11
2023-03-26T05:06:25.424Z,5.17
2023-03-26T05:08:52.942Z,5.23
2023-03-26T05:11:20.580Z,5.30
2023-03-26T05:13:48.304Z,5.33
2023-03-26T05:16:16.126Z,5.36
2023-03-26T05:18:43.758Z,5.39
2023-03-26T05:21:11.425Z,5.43
2023-03-26T05:23:39.010Z,5.46
2023-03-26T05:26:07.745Z,5.49
2023-03-26T05:28:35.318Z,5.50
2023-03-26T05:31:02.933Z,5.53
2023-03-26T05:33:30.731Z,5.55
2023-03-26T05:35:58.729Z,5.54
2023-03-26T05:38:28.928Z,5.53
2023-03-26T05:40:56.834Z,5.55
2023-03-26T05:43:24.517Z,5.58
2023-03-26T05:45:52.460Z,5.64
2023-03-26T05:48:21.771Z,5.70
2023-03-26T05:50:49.596Z,5.77
2023-03-26T05:53:18.302Z,5.84
2023-03-26T05:55:45.906Z,5.90
2023-03-26T05:58:13.614Z,5.96
2023-03-26T06:00:41.698Z,5.99
2023-03-26T06:03:12.987Z,6.05
2023-03-26T06:05:41.046Z,6.10
2023-03-26T06:08:08.633Z,6.15
2023-03-26T06:10:36.291Z,6.21
2023-03-26T06:13:04.151Z,6.27
2023-03-26T06:15:31.733Z,6.30
2023-03-26T06:17:59.373Z,6.32
2023-03-26T06:20:27.052Z,6.34
2023-03-26T06:22:55.132Z,6.35
2023-03-26T06:25:22.769Z,6.38
2023-03-26T06:27:50.502Z,6.41
2023-03-26T06:30:18.067Z,6.45
2023-03-26T06:32:45.849Z,6.47
2023-03-26T06:35:13.666Z,6.49
2023-03-26T06:37:42.509Z,6.52
2023-03-26T06:40:10.098Z,6.52
2023-03-26T06:43:08.625Z,6.50
2023-03-26T06:45:28.697Z,6.49
2023-03-26T06:47:56.778Z,6.52
2023-03-26T06:50:24.480Z,6.58
2023-03-26T06:52:53.325Z,6.65
2023-03-26T06:55:20.964Z,6.75
2023-03-26T06:57:48.676Z,6.79
2023-03-26T07:00:17.867Z,6.86
2023-03-26T07:02:46.047Z,6.91
2023-03-26T07:05:13.866Z,6.95
2023-03-26T07:07:46.963Z,7.07
2023-03-26T07:10:15.971Z,7.18
2023-03-26T07:12:43.654Z,7.27
2023-03-26T07:15:12.481Z,7.32
2023-03-26T07:17:40.431Z,7.39
2023-03-26T07:20:08.214Z,7.50
2023-03-26T07:22:35.845Z,7.61
2023-03-26T07:25:05.898Z,7.70
2023-03-26T07:27:33.489Z,7.77
2023-03-26T07:30:01.576Z,7.82
2023-03-26T07:32:29.251Z,7.79
2023-03-26T07:34:58.510Z,7.59
2023-03-26T07:37:26.157Z,7.39
2023-03-26T07:39:57.644Z,7.24
2023-03-26T07:42:28.419Z,7.13
2023-03-26T07:44:56.270Z,7.07
2023-03-26T07:47:26.161Z,7.04
2023-03-26T07:49:54.032Z,7.01
2023-03-26T07:52:22.111Z,6.98
2023-03-26T07:54:52.633Z,6.97
2023-03-26T07:57:40.927Z,7.01
2023-03-26T08:00:10.317Z,7.07
2023-03-26T08:02:41.223Z,7.11
2023-03-26T08:05:10.447Z,7.16
2023-03-26T08:07:41.652Z,7.17
2023-03-26T08:10:10.318Z,7.19
2023-03-26T08:12:38.222Z,7.27
2023-03-26T08:15:06.084Z,7.39
2023-03-26T08:17:38.017Z,7.42
2023-03-26T08:20:12.138Z,7.43
2023-03-26T08:22:43.268Z,7.45
2023-03-26T08:25:12.028Z,7.55
2023-03-26T08:27:40.322Z,7.58
2023-03-26T08:30:10.292Z,7.54
2023-03-26T08:32:38.494Z,7.50
2023-03-26T08:35:06.720Z,7.54
2023-03-26T08:37:34.591Z,7.59
2023-03-26T08:40:02.617Z,7.62
2023-03-26T08:42:40.845Z,7.66
2023-03-26T08:45:08.728Z,7.73
2023-03-26T08:47:38.653Z,7.80
2023-03-26T08:50:06.513Z,7.93
2023-03-26T08:52:34.664Z,7.99
2023-03-26T08:55:04.370Z,8.00
2023-03-26T08:57:31.923Z,7.98
2023-03-26T09:00:02.494Z,7.92
2023-03-26T09:02:30.611Z,7.93
2023-03-26T09:04:58.781Z,8.04
2023-03-26T09:07:26.994Z,8.15
2023-03-26T09:09:54.968Z,8.17
2023-03-26T09:12:25.311Z,8.04
2023-03-26T09:14:53.340Z,8.00
2023-03-26T09:17:21.391Z,7.99
2023-03-26T09:19:50.101Z,7.97
2023-03-26T09:22:18.177Z,8.10
2023-03-26T09:24:45.991Z,8.22
2023-03-26T09:27:13.838Z,8.21
2023-03-26T09:29:42.624Z,8.18
2023-03-26T09:32:10.358Z,8.29
2023-03-26T09:34:38.338Z,8.32
2023-03-26T09:37:06.614Z,8.41
2023-03-26T09:39:37.837Z,8.52
2023-03-26T09:42:06.074Z,8.61
2023-03-26T09:44:34.415Z,8.76
2023-03-26T09:47:02.211Z,8.88
2023-03-26T09:49:29.935Z,8.98
2023-03-26T09:51:57.604Z,9.01
2023-03-26T09:54:25.380Z,9.02
2023-03-26T09:56:53.044Z,9.02
2023-03-26T09:59:20.784Z,8.93
2023-03-26T10:01:48.502Z,8.85
2023-03-26T10:04:16.109Z,8.84
2023-03-26T10:06:44.546Z,8.88
2023-03-26T10:09:12.502Z,8.87
2023-03-26T10:11:40.590Z,8.89
2023-03-26T10:14:08.304Z,8.90
2023-03-26T10:16:36.380Z,8.91
2023-03-26T10:19:04.509Z,8.99
2023-03-26T10:21:34.883Z,9.09
2023-03-26T10:24:03.448Z,9.14
2023-03-26T10:26:33.316Z,9.18
2023-03-26T10:29:01.630Z,9.22
2023-03-26T10:31:29.347Z,9.27
2023-03-26T10:33:56.858Z,9.26
2023-03-26T10:36:27.848Z,9.30
2023-03-26T10:38:55.642Z,9.49
2023-03-26T10:41:23.555Z,9.75
2023-03-26T10:44:01.287Z,9.79
2023-03-26T10:46:33.528Z,9.70
2023-03-26T10:49:03.675Z,9.63
2023-03-26T10:51:31.359Z,9.63
2023-03-26T10:54:01.061Z,9.56
2023-03-26T10:56:28.682Z,9.45
2023-03-26T10:58:57.001Z,9.38
2023-03-26T11:01:25.186Z,9.33
2023-03-26T11:03:52.811Z,9.28
2023-03-26T11:06:20.512Z,9.27
2023-03-26T11:08:48.169Z,9.28
2023-03-26T11:11:15.821Z,9.29
2023-03-26T11:13:43.458Z,9.29
2023-03-26T11:16:11.185Z,9.33
2023-03-26T11:18:38.957Z,9.50
2023-03-26T11:21:19.403Z,9.67
2023-03-26T11:23:48.293Z,9.78
2023-03-26T11:26:32.920Z,9.86
2023-03-26T11:29:05.171Z,9.86
2023-03-26T11:31:53.051Z,9.95
2023-03-26T11:34:20.887Z,10.02
2023-03-26T11:36:48.445Z,10.11
2023-03-26T11:39:16.138Z,10.15
2023-03-26T11:41:44.408Z,10.12
2023-03-26T11:44:14.713Z,10.15
2023-03-26T11:46:45.605Z,10.16
2023-03-26T11:49:13.800Z,10.17
2023-03-26T11:51:41.547Z,10.15
2023-03-26T11:54:11.869Z,10.15
2023-03-26T11:56:39.492Z,10.22
2023-03-26T11:59:07.581Z,10.29
2023-03-26T12:01:37.947Z,10.31
2023-03-26T12:04:06.222Z,10.33
2023-03-26T12:06:34.498Z,10.39
2023-03-26T12:09:02.027Z,10.49
2023-03-26T12:11:34.676Z,10.56
2023-03-26T12:14:03.911Z,10.59
2023-03-26T12:16:31.626Z,10.57
2023-03-26T12:19:01.769Z,10.48
2023-03-26T12:21:31.520Z,10.47
2023-03-26T12:23:59.561Z,10.44
2023-03-26T12:26:27.796Z,10.38
2023-03-26T12:28:55.412Z,10.36
2023-03-26T12:31:26.531Z,10.41
2023-03-26T12:33:54.372Z,10.59
2023-03-26T12:36:23.332Z,10.78
2023-03-26T12:39:16.939Z,10.88
2023-03-26T12:43:51.428Z,11.06
2023-03-26T12:44:47.212Z,11.17
2023-03-26T12:48:00.710Z,11.13
2023-03-26T12:50:03.752Z,11.19
2023-03-26T12:52:31.332Z,11.25
2023-03-26T12:54:58.828Z,11.28
2023-03-26T12:57:26.570Z,11.22
2023-03-26T12:59:55.355Z,11.21
2023-03-26T13:02:24.214Z,11.22
2023-03-26T13:05:05.045Z,11.22
2023-03-26T13:07:35.736Z,11.19
2023-03-26T13:10:03.336Z,11.15
2023-03-26T13:12:30.941Z,11.10
2023-03-26T13:14:58.771Z,11.06
2023-03-26T13:17:27.038Z,11.02
2023-03-26T13:19:54.690Z,11.04
2023-03-26T13:22:22.458Z,11.02
2023-03-26T13:24:50.107Z,10.95
2023-03-26T13:27:17.769Z,10.89
2023-03-26T13:29:46.484Z,10.85
2023-03-26T13:32:14.565Z,10.90
2023-03-26T13:34:42.255Z,10.89
2023-03-26T13:37:11.012Z,10.84
2023-03-26T13:39:38.619Z,10.77
2023-03-26T13:42:07.195Z,10.76
2023-03-26T13:44:35.433Z,10.79
2023-03-26T13:47:03.102Z,11.11
2023-03-26T13:49:37.792Z,11.34
2023-03-26T13:52:05.957Z,11.31
2023-03-26T13:54:33.596Z,11.36
2023-03-26T13:57:01.238Z,11.43
2023-03-26T13:59:29.084Z,11.41
2023-03-26T14:01:56.736Z,11.38
2023-03-26T14:04:24.419Z,11.43
2023-03-26T14:06:54.190Z,11.35
2023-03-26T14:09:23.363Z,11.31
2023-03-26T14:11:50.927Z,11.19
2023-03-26T14:14:20.850Z,11.15
2023-03-26T14:16:48.401Z,11.09
2023-03-26T14:19:16.150Z,11.01
2023-03-26T14:21:43.955Z,10.94
2023-03-26T14:24:11.896Z,10.84
2023-03-26T14:26:40.527Z,10.84
2023-03-26T14:29:08.548Z,10.76
2023-03-26T14:31:36.127Z,10.77
2023-03-26T14:34:05.519Z,10.72
2023-03-26T14:36:33.037Z,10.76
2023-03-26T14:39:01.341Z,10.77
2023-03-26T14:41:28.967Z,10.77
2023-03-26T14:43:56.579Z,10.80
2023-03-26T14:46:24.386Z,10.79
2023-03-26T14:48:52.384Z,10.80
2023-03-26T14:51:21.801Z,10.77
2023-03-26T14:53:52.367Z,10.77
2023-03-26T14:56:20.099Z,10.84
2023-03-26T14:58:47.657Z,10.88
2023-03-26T15:01:15.950Z,10.88
2023-03-26T15:03:48.904Z,10.84
2023-03-26T15:06:17.052Z,10.84
2023-03-26T15:08:44.521Z,10.90
2023-03-26T15:11:12.592Z,11.05
2023-03-26T15:13:40.764Z,11.06
2023-03-26T15:16:09.510Z,10.98
2023-03-26T15:18:37.195Z,10.94
2023-03-26T15:21:05.192Z,10.93
2023-03-26T15:23:32.871Z,10.95
2023-03-26T15:26:00.546Z,10.96
2023-03-26T15:28:28.361Z,10.92
2023-03-26T15:30:56.231Z,10.90
2023-03-26T15:33:27.279Z,10.82
2023-03-26T15:35:56.357Z,10.78
2023-03-26T15:38:25.594Z,10.79
2023-03-26T15:40:54.636Z,10.93
2023-03-26T15:43:23.948Z,11.04
2023-03-26T15:45:53.906Z,11.17
2023-03-26T15:48:22.054Z,11.21
2023-03-26T15:50:50.841Z,11.14
2023-03-26T15:53:23.754Z,10.97
2023-03-26T15:55:51.408Z,10.81
2023-03-26T15:58:19.147Z,10.75
2023-03-26T16:00:47.086Z,10.73
2023-03-26T16:03:14.946Z,10.69
2023-03-26T16:05:42.939Z,10.63
2023-03-26T16:08:11.203Z,10.52
2023-03-26T16:10:41.033Z,10.42
2023-03-26T16:13:11.032Z,10.36
2023-03-26T16:15:38.678Z,10.31
2023-03-26T16:18:06.699Z,10.26
2023-03-26T16:20:34.597Z,10.23
2023-03-26T16:23:04.980Z,10.22
2023-03-26T16:25:33.313Z,10.21
2023-03-26T16:28:01.531Z,10.14
2023-03-26T16:30:30.557Z,10.09
2023-03-26T16:32:59.189Z,10.06
2023-03-26T16:35:27.410Z,9.99
2023-03-26T16:37:57.816Z,9.95
2023-03-26T16:40:26.039Z,9.87
2023-03-26T16:42:53.622Z,9.79
2023-03-26T16:45:21.508Z,9.72
2023-03-26T16:47:50.292Z,9.65
2023-03-26T16:50:18.839Z,9.56
2023-03-26T16:52:46.626Z,9.48
2023-03-26T16:55:14.925Z,9.39
2023-03-26T16:57:42.657Z,9.29
2023-03-26T17:00:16.688Z,9.21
2023-03-26T17:02:46.398Z,9.13
2023-03-26T17:05:14.443Z,9.09
2023-03-26T17:07:42.186Z,9.04
2023-03-26T17:10:10.158Z,9.01
2023-03-26T17:12:37.749Z,8.99
2023-03-26T17:15:07.020Z,8.96
2023-03-26T17:17:36.834Z,8.93
2023-03-26T17:20:09.366Z,8.90
2023-03-26T17:22:37.172Z,8.84
2023-03-26T17:25:05.438Z,8.81
2023-03-26T17:27:34.909Z,8.81
2023-03-26T17:30:07.531Z,8.80
2023-03-26T17:32:38.660Z,8.80
2023-03-26T17:35:13.919Z,8.78
2023-03-26T17:37:44.760Z,8.73
2023-03-26T17:40:12.545Z,8.64
2023-03-26T17:42:40.163Z,8.56
2023-03-26T17:45:08.271Z,8.46
2023-03-26T17:47:38.307Z,8.40
2023-03-26T17:50:06.339Z,8.36
2023-03-26T17:52:34.076Z,8.31
2023-03-26T17:55:02.251Z,8.28
2023-03-26T17:57:29.807Z,8.28
2023-03-26T17:59:57.529Z,8.24
2023-03-26T18:02:25.335Z,8.13
2023-03-26T18:04:53.555Z,8.07
2023-03-26T18:07:23.118Z,8.03
2023-03-26T18:09:50.892Z,8.02
2023-03-26T18:12:18.488Z,8.01
2023-03-26T18:14:46.406Z,8.02
2023-03-26T18:17:14.074Z,7.99
2023-03-26T18:19:41.548Z,7.95
2023-03-26T18:22:09.805Z,7.90
2023-03-26T18:24:37.306Z,7.87
2023-03-26T18:27:04.901Z,7.88
2023-03-26T18:29:32.644Z,7.86
2023-03-26T18:32:03.542Z,7.87
2023-03-26T18:34:31.991Z,7.86
2023-03-26T18:37:01.863Z,7.85
2023-03-26T18:39:30.811Z,7.83
2023-03-26T18:41:58.606Z,7.84
2023-03-26T18:44:26.368Z,7.77
2023-03-26T18:46:57.712Z,7.67
2023-03-26T18:49:29.390Z,7.59
2023-03-26T18:52:45.723Z,7.54
2023-03-26T18:55:16.464Z,7.52
2023-03-26T18:58:05.264Z,7.48
2023-03-26T19:00:46.901Z,7.52
2023-03-26T19:03:17.938Z,7.53
2023-03-26T19:05:47.406Z,7.54
2023-03-26T19:08:17.244Z,7.55
2023-03-26T19:10:48.288Z,7.58
2023-03-26T19:13:18.175Z,7.61
2023-03-26T19:15:53.604Z,7.59
2023-03-26T19:18:22.186Z,7.57
2023-03-26T19:20:52.348Z,7.56
2023-03-26T19:23:22.296Z,7.57
2023-03-26T19:25:54.546Z,7.58
2023-03-26T19:28:30.727Z,7.57
2023-03-26T19:31:39.181Z,7.54
2023-03-26T19:34:06.874Z,7.52
2023-03-26T19:36:38.385Z,7.48
2023-03-26T19:39:08.319Z,7.45
2023-03-26T19:41:36.485Z,7.47
2023-03-26T19:44:04.398Z,7.53
2023-03-26T19:46:32.522Z,7.55
2023-03-26T19:49:01.783Z,7.54
2023-03-26T19:51:29.834Z,7.50
2023-03-26T19:53:59.609Z,7.46
2023-03-26T19:56:28.713Z,7.42
2023-03-26T19:58:57.272Z,7.39
2023-03-26T20:01:28.133Z,7.41
2023-03-26T20:03:59.950Z,7.40
2023-03-26T20:09:19.555Z,7.32
2023-03-26T20:11:47.455Z,7.33
2023-03-26T20:14:15.163Z,7.31
2023-03-26T20:16:45.318Z,7.32
2023-03-26T20:19:16.344Z,7.30
2023-03-26T20:21:46.050Z,7.31
2023-03-26T20:24:14.680Z,7.27
2023-03-26T20:26:43.092Z,7.23
2023-03-26T20:29:11.735Z,7.20
2023-03-26T20:31:41.840Z,7.16
2023-03-26T20:34:09.672Z,7.08
2023-03-26T20:36:38.375Z,7.00
2023-03-26T20:39:06.587Z,7.00
2023-03-26T20:41:34.158Z,7.00
2023-03-26T20:44:03.787Z,7.03
2023-03-26T20:46:33.240Z,6.97
2023-03-26T20:49:01.167Z,6.89
2023-03-26T20:51:29.201Z,6.72
2023-03-26T20:53:57.974Z,6.55
2023-03-26T20:56:27.168Z,6.44
2023-03-26T20:59:09.798Z,6.37
2023-03-26T21:01:39.096Z,6.33
2023-03-26T21:04:06.599Z,6.32
2023-03-26T21:06:34.147Z,6.29
2023-03-26T21:09:02.805Z,6.22
2023-03-26T21:11:30.327Z,6.16
2023-03-26T21:13:57.822Z,6.15
2023-03-26T21:16:25.416Z,6.06
2023-03-26T21:18:54.387Z,6.04
2023-03-26T21:21:22.324Z,6.06
2023-03-26T21:23:52.849Z,6.06
2023-03-26T21:26:20.469Z,6.07
2023-03-26T21:28:48.082Z,6.13
2023-03-26T21:31:15.853Z,6.22
2023-03-26T21:33:44.264Z,6.24
2023-03-26T21:36:12.181Z,6.23
2023-03-26T21:38:39.963Z,6.24
2023-03-26T21:41:07.794Z,6.28
2023-03-26T21:43:35.312Z,6.29
2023-03-26T21:46:03.438Z,6.25
2023-03-26T21:48:31.189Z,6.30
2023-03-26T21:51:02.422Z,6.34
2023-03-26T21:53:30.408Z,6.40
2023-03-26T21:55:57.985Z,6.40
2023-03-26T21:58:25.579Z,6.43
2023-03-26T22:00:53.594Z,6.40
2023-03-26T22:03:21.435Z,6.39
2023-03-26T22:05:49.135Z,6.37
2023-03-26T22:08:16.913Z,6.29
2023-03-26T22:10:44.879Z,6.24
2023-03-26T22:13:12.438Z,6.15
2023-03-26T22:15:40.222Z,6.07
2023-03-26T22:18:07.866Z,6.01
2023-03-26T22:20:36.479Z,5.88
2023-03-26T22:23:05.020Z,5.68
2023-03-26T22:25:32.994Z,5.54
2023-03-26T22:28:02.021Z,5.45
2023-03-26T22:30:31.105Z,5.35
2023-03-26T22:32:58.908Z,5.30
2023-03-26T22:35:26.756Z,5.31
2023-03-26T22:38:00.378Z,5.34
2023-03-26T22:40:28.704Z,5.36
2023-03-26T22:42:56.877Z,5.40
2023-03-26T22:45:24.531Z,5.45
2023-03-26T22:48:09.395Z,5.51
2023-03-26T22:50:36.998Z,5.57
2023-03-26T22:53:04.820Z,5.61
2023-03-26T22:55:32.433Z,5.62
2023-03-26T22:57:59.992Z,5.58
2023-03-26T23:00:27.931Z,5.58
2023-03-26T23:03:00.827Z,5.56
2023-03-26T23:05:29.436Z,5.57
2023-03-26T23:07:57.273Z,5.56
2023-03-26T23:10:24.859Z,5.51
2023-03-26T23:12:52.428Z,5.49
2023-03-26T23:15:27.580Z,5.49
2023-03-26T23:17:56.626Z,5.50
2023-03-26T23:20:24.251Z,5.53
2023-03-26T23:22:52.564Z,5.56
2023-03-26T23:25:20.284Z,5.64
2023-03-26T23:27:48.452Z,5.65
2023-03-26T23:30:16.778Z,5.65
2023-03-26T23:32:44.446Z,5.67
2023-03-26T23:35:12.015Z,5.68
2023-03-26T23:37:42.461Z,5.72
2023-03-26T23:40:10.795Z,5.74
2023-03-26T23:42:38.411Z,5.74
2023-03-26T23:45:06.230Z,5.73
2023-03-26T23:47:37.344Z,5.73
2023-03-26T23:50:04.871Z,5.74
2023-03-26T23:52:32.599Z,5.74
2023-03-26T23:55:02.057Z,5.78
2023-03-26T23:57:37.087Z,5.76
